createdAt,value
2018-07-05T00:01:28.158Z,60284.07
2018-07-05T00:04:07.515Z,60281.03
2018-07-05T00:06:46.954Z,60265.79
2018-07-05T00:09:26.450Z,60286.11
2018-07-05T00:12:05.854Z,60262.74
2018-07-05T00:14:45.237Z,60290.17
2018-07-05T00:17:24.670Z,60269.85
2018-07-05T00:20:04.047Z,60303.38
2018-07-05T00:22:43.423Z,60289.16
2018-07-05T00:25:22.842Z,60295.25
2018-07-05T00:28:02.215Z,60295.25
2018-07-05T00:30:41.594Z,60298.30
2018-07-05T00:33:21.009Z,60288.14
2018-07-05T00:36:00.447Z,60282.04
2018-07-05T00:38:39.886Z,60286.11
2018-07-05T00:41:19.366Z,60252.57
2018-07-05T00:43:58.822Z,60289.16
2018-07-05T00:46:38.375Z,60286.11
2018-07-05T00:49:17.735Z,60289.16
2018-07-05T00:51:57.178Z,60286.11
2018-07-05T00:54:36.626Z,60313.54
2018-07-05T00:57:16.074Z,60296.27
2018-07-05T00:59:55.666Z,60289.16
2018-07-05T01:02:35.122Z,60290.17
2018-07-05T01:05:14.561Z,60284.07
2018-07-05T01:07:54.023Z,60283.06
2018-07-05T01:10:33.334Z,60314.56
2018-07-05T01:13:12.818Z,60310.50
2018-07-05T01:15:52.167Z,60281.03
2018-07-05T01:18:31.672Z,60294.24
2018-07-05T01:21:11.263Z,60296.27
2018-07-05T01:23:50.664Z,60275.95
2018-07-05T01:26:30.067Z,60281.03
2018-07-05T01:29:09.462Z,60291.19
2018-07-05T01:31:48.955Z,60304.40
2018-07-05T01:34:28.395Z,60303.38
2018-07-05T01:37:07.978Z,60273.91
2018-07-05T01:39:47.413Z,60306.43
2018-07-05T01:42:26.826Z,60302.37
2018-07-05T01:45:06.314Z,60289.16
2018-07-05T01:47:45.726Z,60309.48
2018-07-05T01:50:25.243Z,60286.11
2018-07-05T01:53:04.634Z,60294.24
2018-07-05T01:55:43.924Z,60289.16
2018-07-05T01:58:23.305Z,60290.17
2018-07-05T02:01:02.783Z,60288.14
2018-07-05T02:03:42.330Z,60314.56
2018-07-05T02:06:21.782Z,60293.22
2018-07-05T02:09:01.352Z,60283.06
2018-07-05T02:11:40.788Z,60291.19
2018-07-05T02:14:20.315Z,60316.59
2018-07-05T02:16:59.666Z,60303.38
2018-07-05T02:19:39.035Z,60322.69
2018-07-05T02:22:18.318Z,60302.37
2018-07-05T02:24:57.874Z,60310.50
2018-07-05T02:27:37.310Z,60298.30
2018-07-05T02:30:16.958Z,60314.56
2018-07-05T02:32:56.323Z,60293.22
2018-07-05T02:35:35.750Z,60313.54
2018-07-05T02:38:20.532Z,60308.46
2018-07-05T02:41:00.287Z,60311.51
2018-07-05T02:43:39.748Z,60298.30
2018-07-05T02:46:19.115Z,60288.14
2018-07-05T02:48:58.550Z,60308.46
2018-07-05T02:51:37.999Z,60293.22
2018-07-05T02:54:17.538Z,60317.61
2018-07-05T02:56:57.087Z,60295.25
2018-07-05T02:59:36.731Z,60296.27
2018-07-05T03:02:16.123Z,60331.84
2018-07-05T03:04:55.519Z,60287.12
2018-07-05T03:07:35.050Z,60299.32
2018-07-05T03:10:14.411Z,60304.40
2018-07-05T03:12:53.859Z,60294.24
2018-07-05T03:15:33.227Z,60308.46
2018-07-05T03:18:12.678Z,60309.48
2018-07-05T03:20:52.298Z,60305.41
2018-07-05T03:23:31.802Z,60322.69
2018-07-05T03:26:11.262Z,60314.56
2018-07-05T03:28:51.022Z,60304.40
2018-07-05T03:31:30.525Z,60292.21
2018-07-05T03:34:09.922Z,60308.46
2018-07-05T03:36:49.425Z,60323.71
2018-07-05T03:39:28.816Z,60308.46
2018-07-05T03:42:08.316Z,60325.74
2018-07-05T03:44:47.722Z,60327.77
2018-07-05T03:47:27.145Z,60306.43
2018-07-05T03:50:06.509Z,60316.59
2018-07-05T03:52:46.074Z,60318.62
2018-07-05T03:55:25.695Z,60322.69
2018-07-05T03:58:05.023Z,60304.40
2018-07-05T04:00:44.490Z,60340.98
2018-07-05T04:03:23.898Z,60329.80
2018-07-05T04:06:03.238Z,60316.59
2018-07-05T04:08:42.679Z,60302.37
2018-07-05T04:11:22.072Z,60312.53
2018-07-05T04:14:01.469Z,60334.88
2018-07-05T04:16:40.782Z,60326.75
2018-07-05T04:19:20.230Z,60322.69
2018-07-05T04:21:59.715Z,60322.69
2018-07-05T04:24:39.219Z,60326.75
2018-07-05T04:27:18.682Z,60320.66
2018-07-05T04:29:58.114Z,60324.72
2018-07-05T04:32:37.611Z,60313.54
2018-07-05T04:35:17.111Z,60306.43
2018-07-05T04:37:56.561Z,60308.46
2018-07-05T04:40:35.965Z,60318.62
2018-07-05T04:43:15.431Z,60317.61
2018-07-05T04:45:54.930Z,60299.32
2018-07-05T04:48:34.277Z,60290.17
2018-07-05T04:51:13.622Z,60313.54
2018-07-05T04:53:53.022Z,60300.34
2018-07-05T04:56:32.422Z,60288.14
2018-07-05T04:59:11.738Z,60322.69
2018-07-05T05:01:51.371Z,60305.41
2018-07-05T05:04:30.846Z,60306.43
2018-07-05T05:07:10.142Z,60318.62
2018-07-05T05:09:49.514Z,60340.98
2018-07-05T05:12:28.929Z,60319.64
2018-07-05T05:15:08.499Z,60294.24
2018-07-05T05:17:47.952Z,60329.80
2018-07-05T05:20:27.378Z,60308.46
2018-07-05T05:23:06.762Z,60303.38
2018-07-05T05:25:46.298Z,60324.72
2018-07-05T05:28:25.698Z,60313.54
2018-07-05T05:31:05.083Z,60330.82
2018-07-05T05:33:44.501Z,60285.09
2018-07-05T05:36:24.024Z,60310.50
2018-07-05T05:39:04.078Z,60317.61
2018-07-05T05:41:43.698Z,60337.93
2018-07-05T05:44:23.068Z,60295.25
2018-07-05T05:47:02.637Z,60315.57
2018-07-05T05:49:42.118Z,60298.30
2018-07-05T05:52:21.566Z,60285.09
2018-07-05T05:55:00.887Z,60278.99
2018-07-05T05:57:40.184Z,60294.24
2018-07-05T06:00:19.618Z,60294.24
2018-07-05T06:02:59.305Z,60269.85
2018-07-05T06:05:38.759Z,60295.25
2018-07-05T06:08:18.184Z,60277.98
2018-07-05T06:10:57.506Z,60265.79
2018-07-05T06:13:36.899Z,60289.16
2018-07-05T06:16:16.318Z,60277.98
2018-07-05T06:18:55.698Z,60311.51
2018-07-05T06:21:35.255Z,60302.37
2018-07-05T06:24:14.888Z,60291.19
2018-07-05T06:26:54.148Z,60272.90
2018-07-05T06:29:33.679Z,60300.34
2018-07-05T06:32:13.055Z,60283.06
2018-07-05T06:34:52.486Z,60265.79
2018-07-05T06:37:31.922Z,60281.03
2018-07-05T06:40:11.343Z,60281.03
2018-07-05T06:42:50.790Z,60286.11
2018-07-05T06:45:30.226Z,60277.98
2018-07-05T06:48:09.990Z,60290.17
2018-07-05T06:50:49.626Z,60284.07
2018-07-05T06:53:29.911Z,60281.03
2018-07-05T06:56:09.290Z,60285.09
2018-07-05T06:58:48.678Z,60286.11
2018-07-05T07:01:28.046Z,60264.77
2018-07-05T07:04:07.602Z,60264.77
2018-07-05T07:06:46.991Z,60295.25
2018-07-05T07:09:26.346Z,60276.96
2018-07-05T07:12:05.754Z,60285.09
2018-07-05T07:14:45.141Z,60270.87
2018-07-05T07:17:24.526Z,60263.75
2018-07-05T07:20:04.075Z,60267.82
2018-07-05T07:22:43.445Z,60270.87
2018-07-05T07:25:22.880Z,60258.67
2018-07-05T07:28:02.286Z,60260.71
2018-07-05T07:30:41.791Z,60265.79
2018-07-05T07:33:21.198Z,60276.96
2018-07-05T07:36:00.666Z,60275.95
2018-07-05T07:38:40.206Z,60252.57
2018-07-05T07:41:19.740Z,60253.59
2018-07-05T07:43:46.835Z,60261.72
2018-07-05T07:46:13.928Z,60263.75
2018-07-05T07:48:41.046Z,60255.63
2018-07-05T07:51:08.143Z,60255.63
2018-07-05T07:53:35.247Z,60253.59
2018-07-05T07:56:02.338Z,60245.46
2018-07-05T07:58:29.439Z,60253.59
2018-07-05T08:00:56.543Z,60239.36
2018-07-05T08:03:23.641Z,60246.48
2018-07-05T08:05:50.734Z,60238.35
2018-07-05T08:08:17.865Z,60234.29
2018-07-05T08:10:44.927Z,60233.27
2018-07-05T08:13:12.030Z,60246.48
2018-07-05T08:15:39.230Z,60270.87
2018-07-05T08:18:06.323Z,60247.49
2018-07-05T08:20:33.677Z,60249.53
2018-07-05T08:23:00.882Z,60245.46
2018-07-05T08:25:28.040Z,60219.04
2018-07-05T08:27:55.162Z,60229.20
2018-07-05T08:30:22.618Z,60228.19
2018-07-05T08:32:49.706Z,60219.04
2018-07-05T08:35:16.807Z,60247.49
2018-07-05T08:37:44.099Z,60229.20
2018-07-05T08:40:11.183Z,60240.38
2018-07-05T08:42:38.282Z,60248.51
2018-07-05T08:45:05.393Z,60241.40
2018-07-05T08:47:32.481Z,60230.22
2018-07-05T08:49:59.602Z,60244.45
2018-07-05T08:52:26.691Z,60225.14
2018-07-05T08:54:53.781Z,60221.07
2018-07-05T08:57:20.882Z,60218.03
2018-07-05T08:59:47.971Z,60230.22
2018-07-05T09:02:15.067Z,60232.25
2018-07-05T09:04:42.158Z,60217.01
2018-07-05T09:07:09.247Z,60223.11
2018-07-05T09:09:36.338Z,60228.19
2018-07-05T09:12:03.431Z,60239.36
2018-07-05T09:14:30.523Z,60213.96
2018-07-05T09:16:57.621Z,60218.03
2018-07-05T09:19:24.715Z,60222.09
2018-07-05T09:21:51.810Z,60217.01
2018-07-05T09:24:18.902Z,60223.11
2018-07-05T09:26:46.011Z,60237.33
2018-07-05T09:29:13.086Z,60227.17
2018-07-05T09:31:40.186Z,60212.95
2018-07-05T09:34:07.283Z,60221.07
2018-07-05T09:36:34.390Z,60222.09
2018-07-05T09:39:01.487Z,60208.88
2018-07-05T09:41:28.588Z,60225.14
2018-07-05T09:43:55.689Z,60217.01
2018-07-05T09:46:22.780Z,60191.61
2018-07-05T09:48:49.874Z,60219.04
2018-07-05T09:51:16.974Z,60217.01
2018-07-05T09:53:44.071Z,60204.82
2018-07-05T09:56:11.168Z,60199.74
2018-07-05T09:58:38.277Z,60187.54
2018-07-05T10:01:09.247Z,60219.04
2018-07-05T10:03:36.366Z,60193.64
2018-07-05T10:06:03.442Z,60209.90
2018-07-05T10:08:30.574Z,60200.75
2018-07-05T10:10:57.670Z,60203.80
2018-07-05T10:13:24.876Z,60199.74
2018-07-05T10:15:51.863Z,60194.66
2018-07-05T10:18:18.962Z,60192.62
2018-07-05T10:20:46.059Z,60167.22
2018-07-05T10:23:13.154Z,60183.48
2018-07-05T10:25:40.258Z,60171.29
2018-07-05T10:28:07.346Z,60186.52
2018-07-05T10:30:46.890Z,60174.33
2018-07-05T10:33:26.243Z,60150.96
2018-07-05T10:35:53.339Z,60167.22
2018-07-05T10:38:20.434Z,60149.95
2018-07-05T10:40:59.745Z,60147.91
2018-07-05T10:43:39.182Z,60176.37
2018-07-05T10:46:18.670Z,60181.45
2018-07-05T10:48:58.058Z,60154.01
2018-07-05T10:51:37.552Z,60170.27
2018-07-05T10:54:16.910Z,60149.95
2018-07-05T10:56:56.304Z,60147.91
2018-07-05T10:59:35.615Z,60167.22
2018-07-05T11:02:15.223Z,60167.22
2018-07-05T11:04:54.726Z,60174.33
2018-07-05T11:07:33.982Z,60172.30
2018-07-05T11:10:13.290Z,60175.35
2018-07-05T11:12:52.666Z,60182.46
2018-07-05T11:15:32.082Z,60175.35
2018-07-05T11:18:11.446Z,60175.35
2018-07-05T11:20:50.920Z,60187.54
2018-07-05T11:23:30.470Z,60174.33
2018-07-05T11:26:09.994Z,60162.14
2018-07-05T11:28:49.371Z,60174.33
2018-07-05T11:31:28.788Z,60158.07
2018-07-05T11:34:08.166Z,60141.82
2018-07-05T11:36:47.494Z,60131.66
2018-07-05T11:39:26.978Z,60139.79
2018-07-05T11:42:06.354Z,60114.38
2018-07-05T11:44:45.757Z,60132.67
2018-07-05T11:47:25.187Z,60134.70
2018-07-05T11:50:04.703Z,60151.98
2018-07-05T11:52:44.078Z,60137.75
2018-07-05T11:55:23.691Z,60136.73
2018-07-05T11:58:03.215Z,60141.82
2018-07-05T12:00:42.623Z,60129.63
2018-07-05T12:03:21.990Z,60121.50
2018-07-05T12:06:01.382Z,60129.63
2018-07-05T12:08:40.985Z,60146.90
2018-07-05T12:11:20.307Z,60148.93
2018-07-05T12:13:59.691Z,60160.11
2018-07-05T12:16:39.071Z,60146.90
2018-07-05T12:19:18.623Z,60167.22
2018-07-05T12:21:58.030Z,60165.19
2018-07-05T12:24:37.395Z,60148.93
2018-07-05T12:27:16.833Z,60169.25
2018-07-05T12:29:56.327Z,60162.14
2018-07-05T12:32:35.738Z,60169.25
2018-07-05T12:35:15.066Z,60160.11
2018-07-05T12:37:54.486Z,60182.46
2018-07-05T12:40:33.899Z,60175.35
2018-07-05T12:43:13.306Z,60202.79
2018-07-05T12:45:52.890Z,60166.20
2018-07-05T12:48:32.252Z,60183.48
2018-07-05T12:51:11.672Z,60172.30
2018-07-05T12:53:51.122Z,60178.40
2018-07-05T12:56:30.454Z,60171.29
2018-07-05T12:59:10.692Z,60190.59
2018-07-05T13:01:50.172Z,60188.56
2018-07-05T13:04:29.717Z,60197.70
2018-07-05T13:07:09.110Z,60200.75
2018-07-05T13:09:48.482Z,60189.57
2018-07-05T13:12:28.002Z,60205.83
2018-07-05T13:15:07.535Z,60187.54
2018-07-05T13:17:46.914Z,60213.96
2018-07-05T13:20:26.362Z,60206.85
2018-07-05T13:23:05.870Z,60200.75
2018-07-05T13:25:45.483Z,60174.33
2018-07-05T13:28:24.992Z,60178.40
2018-07-05T13:31:04.338Z,60178.40
2018-07-05T13:33:43.678Z,60190.59
2018-07-05T13:36:22.950Z,60180.43
2018-07-05T13:39:02.468Z,60190.59
2018-07-05T13:41:41.872Z,60176.37
2018-07-05T13:44:21.398Z,60175.35
2018-07-05T13:47:00.790Z,60205.83
2018-07-05T13:49:40.194Z,60180.43
2018-07-05T13:52:19.680Z,60180.43
2018-07-05T13:54:59.204Z,60189.57
2018-07-05T13:57:38.946Z,60169.25
2018-07-05T14:00:18.462Z,60163.16
2018-07-05T14:02:58.108Z,60181.45
2018-07-05T14:05:37.631Z,60164.17
2018-07-05T14:08:17.042Z,60181.45
2018-07-05T14:10:56.457Z,60183.48
2018-07-05T14:13:35.909Z,60173.32
2018-07-05T14:16:15.350Z,60170.27
2018-07-05T14:18:54.894Z,60160.11
2018-07-05T14:21:34.282Z,60176.37
2018-07-05T14:24:13.681Z,60175.35
2018-07-05T14:26:53.758Z,60169.25
2018-07-05T14:29:33.338Z,60160.11
2018-07-05T14:32:12.885Z,60157.06
2018-07-05T14:34:52.355Z,60163.16
2018-07-05T14:37:31.891Z,60166.20
2018-07-05T14:40:11.354Z,60173.32
2018-07-05T14:42:50.751Z,60170.27
2018-07-05T14:45:30.219Z,60158.07
2018-07-05T14:48:09.627Z,60171.29
2018-07-05T14:50:49.158Z,60175.35
2018-07-05T14:53:28.790Z,60159.09
2018-07-05T14:56:08.366Z,60155.03
2018-07-05T14:58:47.927Z,60161.12
2018-07-05T15:01:27.326Z,60151.98
2018-07-05T15:04:06.736Z,60148.93
2018-07-05T15:06:46.098Z,60162.14
2018-07-05T15:09:25.545Z,60180.43
2018-07-05T15:12:05.006Z,60172.30
2018-07-05T15:14:44.411Z,60171.29
2018-07-05T15:17:24.022Z,60187.54
2018-07-05T15:20:03.266Z,60180.43
2018-07-05T15:22:42.646Z,60172.30
2018-07-05T15:25:22.258Z,60177.38
2018-07-05T15:28:01.695Z,60186.52
2018-07-05T15:30:41.272Z,60182.46
2018-07-05T15:33:20.635Z,60197.70
2018-07-05T15:36:00.167Z,60194.66
2018-07-05T15:38:39.779Z,60209.90
2018-07-05T15:41:19.266Z,60220.06
2018-07-05T15:43:58.798Z,60193.64
2018-07-05T15:46:38.469Z,60188.56
2018-07-05T15:49:18.766Z,60208.88
2018-07-05T15:51:59.126Z,60190.59
2018-07-05T15:54:38.712Z,60202.79
2018-07-05T15:57:18.358Z,60181.45
2018-07-05T15:59:58.486Z,60170.27
2018-07-05T16:02:38.060Z,60182.46
2018-07-05T16:05:17.726Z,60183.48
2018-07-05T16:07:57.241Z,60183.48
2018-07-05T16:10:36.958Z,60186.52
2018-07-05T16:13:16.663Z,60184.49
2018-07-05T16:15:56.157Z,60176.37
2018-07-05T16:18:35.694Z,60176.37
2018-07-05T16:21:15.110Z,60165.19
2018-07-05T16:23:54.682Z,60166.20
2018-07-05T16:26:34.095Z,60181.45
2018-07-05T16:29:13.517Z,60179.41
2018-07-05T16:31:52.977Z,60180.43
2018-07-05T16:34:32.367Z,60171.29
2018-07-05T16:37:11.867Z,60163.16
2018-07-05T16:39:51.282Z,60167.22
2018-07-05T16:42:30.914Z,60167.22
2018-07-05T16:45:10.350Z,60186.52
2018-07-05T16:47:49.923Z,60179.41
2018-07-05T16:50:29.278Z,60181.45
2018-07-05T16:53:08.894Z,60191.61
2018-07-05T16:55:49.223Z,60179.41
2018-07-05T16:58:28.757Z,60164.17
2018-07-05T17:01:08.290Z,60191.61
2018-07-05T17:03:47.721Z,60186.52
2018-07-05T17:06:27.465Z,60167.22
2018-07-05T17:09:06.913Z,60176.37
2018-07-05T17:11:46.384Z,60179.41
2018-07-05T17:14:26.039Z,60197.70
2018-07-05T17:17:05.548Z,60181.45
2018-07-05T17:19:44.878Z,60183.48
2018-07-05T17:22:24.408Z,60192.62
2018-07-05T17:25:03.886Z,60176.37
2018-07-05T17:27:43.376Z,60169.25
2018-07-05T17:30:22.847Z,60191.61
2018-07-05T17:33:02.262Z,60169.25
2018-07-05T17:35:41.746Z,60202.79
2018-07-05T17:38:21.037Z,60193.64
2018-07-05T17:41:00.382Z,60180.43
2018-07-05T17:43:39.835Z,60172.30
2018-07-05T17:46:19.339Z,60194.66
2018-07-05T17:48:58.730Z,60170.27
2018-07-05T17:51:38.175Z,60177.38
2018-07-05T17:54:17.523Z,60182.46
2018-07-05T17:56:56.920Z,60180.43
2018-07-05T17:59:36.430Z,60160.11
2018-07-05T18:02:15.856Z,60174.33
2018-07-05T18:04:55.370Z,60187.54
2018-07-05T18:07:34.866Z,60196.69
2018-07-05T18:10:14.366Z,60202.79
2018-07-05T18:12:53.931Z,60186.52
2018-07-05T18:15:33.449Z,60172.30
2018-07-05T18:18:12.988Z,60191.61
2018-07-05T18:20:52.597Z,60182.46
2018-07-05T18:23:32.083Z,60198.72
2018-07-05T18:26:11.502Z,60202.79
2018-07-05T18:28:50.939Z,60179.41
2018-07-05T18:31:30.625Z,60193.64
2018-07-05T18:34:10.214Z,60190.59
2018-07-05T18:36:49.782Z,60195.67
2018-07-05T18:39:29.402Z,60181.45
2018-07-05T18:42:08.930Z,60194.66
2018-07-05T18:44:48.342Z,60182.46
2018-07-05T18:47:27.874Z,60202.79
2018-07-05T18:50:07.315Z,60194.66
2018-07-05T18:52:46.706Z,60189.57
2018-07-05T18:55:26.250Z,60180.43
2018-07-05T18:58:05.630Z,60192.62
2018-07-05T19:00:45.048Z,60200.75
2018-07-05T19:03:24.654Z,60220.06
2018-07-05T19:06:04.175Z,60199.74
2018-07-05T19:08:43.735Z,60207.86
2018-07-05T19:11:23.142Z,60207.86
2018-07-05T19:14:02.550Z,60198.72
2018-07-05T19:16:42.052Z,60215.99
2018-07-05T19:19:21.322Z,60221.07
2018-07-05T19:22:00.868Z,60200.75
2018-07-05T19:24:40.359Z,60221.07
2018-07-05T19:27:19.864Z,60214.98
2018-07-05T19:29:59.374Z,60220.06
2018-07-05T19:32:38.753Z,60218.03
2018-07-05T19:35:18.191Z,60205.83
2018-07-05T19:37:57.686Z,60215.99
2018-07-05T19:40:37.242Z,60249.53
2018-07-05T19:43:16.598Z,60228.19
2018-07-05T19:45:55.986Z,60238.35
2018-07-05T19:48:35.286Z,60223.11
2018-07-05T19:51:14.662Z,60239.36
2018-07-05T19:53:54.047Z,60259.69
2018-07-05T19:56:33.492Z,60262.74
2018-07-05T19:59:12.987Z,60259.69
2018-07-05T20:01:52.390Z,60236.32
2018-07-05T20:04:31.754Z,60242.41
2018-07-05T20:07:11.358Z,60226.16
2018-07-05T20:09:50.727Z,60231.24
2018-07-05T20:12:30.194Z,60242.41
2018-07-05T20:15:09.639Z,60253.59
2018-07-05T20:17:49.138Z,60268.83
2018-07-05T20:20:28.522Z,60262.74
2018-07-05T20:23:07.915Z,60252.57
2018-07-05T20:25:47.327Z,60254.61
2018-07-05T20:28:26.706Z,60249.53
2018-07-05T20:31:06.214Z,60264.77
2018-07-05T20:33:45.601Z,60246.48
2018-07-05T20:36:25.134Z,60253.59
2018-07-05T20:39:05.627Z,60247.49
2018-07-05T20:41:45.296Z,60235.30
2018-07-05T20:44:24.858Z,60253.59
2018-07-05T20:47:04.387Z,60252.57
2018-07-05T20:49:43.906Z,60262.74
2018-07-05T20:52:23.315Z,60271.88
2018-07-05T20:55:02.685Z,60264.77
2018-07-05T20:57:42.215Z,60251.56
2018-07-05T21:00:21.653Z,60257.66
2018-07-05T21:03:01.074Z,60265.79
2018-07-05T21:05:40.477Z,60244.45
2018-07-05T21:08:20.054Z,60260.71
2018-07-05T21:10:59.663Z,60261.72
2018-07-05T21:13:39.093Z,60277.98
2018-07-05T21:16:18.490Z,60264.77
2018-07-05T21:18:58.035Z,60273.91
2018-07-05T21:21:37.514Z,60245.46
2018-07-05T21:24:17.040Z,60267.82
2018-07-05T21:26:56.522Z,60260.71
2018-07-05T21:29:36.076Z,60274.93
2018-07-05T21:32:15.474Z,60278.99
2018-07-05T21:34:54.869Z,60269.85
2018-07-05T21:37:34.261Z,60287.12
2018-07-05T21:40:13.665Z,60254.61
2018-07-05T21:42:53.134Z,60284.07
2018-07-05T21:45:32.566Z,60265.79
2018-07-05T21:48:11.910Z,60253.59
2018-07-05T21:50:51.394Z,60262.74
2018-07-05T21:53:30.967Z,60273.91
2018-07-05T21:56:10.418Z,60300.34
2018-07-05T21:58:49.951Z,60283.06
2018-07-05T22:01:29.319Z,60264.77
2018-07-05T22:04:08.687Z,60294.24
2018-07-05T22:06:48.122Z,60291.19
2018-07-05T22:09:27.643Z,60261.72
2018-07-05T22:12:07.047Z,60267.82
2018-07-05T22:14:46.427Z,60272.90
2018-07-05T22:17:31.239Z,60271.88
2018-07-05T22:20:15.966Z,60287.12
2018-07-05T22:23:00.799Z,60302.37
2018-07-05T22:25:45.773Z,60290.17
2018-07-05T22:28:30.602Z,60317.61
2018-07-05T22:31:15.602Z,60291.19
2018-07-05T22:33:55.044Z,60271.88
2018-07-05T22:36:34.568Z,60300.34
2018-07-05T22:39:13.826Z,60295.25
2018-07-05T22:41:53.222Z,60297.29
2018-07-05T22:44:32.643Z,60272.90
2018-07-05T22:47:12.028Z,60303.38
2018-07-05T22:49:51.556Z,60289.16
2018-07-05T22:52:30.950Z,60286.11
2018-07-05T22:55:10.434Z,60298.30
2018-07-05T22:57:49.847Z,60314.56
2018-07-05T23:00:29.275Z,60293.22
2018-07-05T23:03:08.710Z,60302.37
2018-07-05T23:05:48.178Z,60304.40
2018-07-05T23:08:27.698Z,60292.21
2018-07-05T23:11:07.034Z,60313.54
2018-07-05T23:13:46.498Z,60308.46
2018-07-05T23:16:26.032Z,60305.41
2018-07-05T23:19:05.375Z,60306.43
2018-07-05T23:21:44.810Z,60313.54
2018-07-05T23:24:24.334Z,60301.35
2018-07-05T23:29:36.494Z,60309.48
2018-07-05T23:32:15.929Z,60308.46
2018-07-05T23:34:55.354Z,60327.77
2018-07-05T23:37:34.868Z,60305.41
2018-07-05T23:40:14.278Z,60315.57
2018-07-05T23:42:53.874Z,60309.48
2018-07-05T23:45:33.426Z,60320.66
2018-07-05T23:48:12.778Z,60308.46
2018-07-05T23:50:52.191Z,60309.48
2018-07-05T23:53:31.534Z,60311.51
2018-07-05T23:56:10.847Z,60321.67
2018-07-05T23:58:50.311Z,60316.59
